createdAt,value
2018-05-13T00:01:19.245Z,14.50
2018-05-13T00:03:46.778Z,14.50
2018-05-13T00:06:14.330Z,14.40
2018-05-13T00:08:41.863Z,14.50
2018-05-13T00:11:10.176Z,14.40
2018-05-13T00:13:37.720Z,14.40
2018-05-13T00:16:05.270Z,14.40
2018-05-13T00:18:32.808Z,14.40
2018-05-13T00:21:00.357Z,14.50
2018-05-13T00:23:27.891Z,14.50
2018-05-13T00:25:55.437Z,14.60
2018-05-13T00:28:22.967Z,14.60
2018-05-13T00:30:50.507Z,14.50
2018-05-13T00:33:18.035Z,14.40
2018-05-13T00:35:45.577Z,14.30
2018-05-13T00:38:13.120Z,14.30
2018-05-13T00:40:40.691Z,14.30
2018-05-13T00:43:08.229Z,14.20
2018-05-13T00:45:35.793Z,14.30
2018-05-13T00:48:03.325Z,14.30
2018-05-13T00:50:30.904Z,14.30
2018-05-13T00:52:58.443Z,14.30
2018-05-13T00:55:25.988Z,14.20
2018-05-13T00:57:53.518Z,14.10
2018-05-13T01:00:21.068Z,14.10
2018-05-13T01:02:48.593Z,14.10
2018-05-13T01:05:16.172Z,14.10
2018-05-13T01:07:43.709Z,14.10
2018-05-13T01:10:11.251Z,14.00
2018-05-13T01:12:45.320Z,14.00
2018-05-13T01:15:12.849Z,14.10
2018-05-13T01:17:40.394Z,14.10
2018-05-13T01:20:07.916Z,14.10
2018-05-13T01:22:35.460Z,14.10
2018-05-13T01:25:02.983Z,14.10
2018-05-13T01:27:30.524Z,14.10
2018-05-13T01:29:58.046Z,14.10
2018-05-13T01:32:25.583Z,14.00
2018-05-13T01:34:53.110Z,13.90
2018-05-13T01:37:20.643Z,13.90
2018-05-13T01:39:48.172Z,13.90
2018-05-13T01:42:15.713Z,14.00
2018-05-13T01:44:43.236Z,14.00
2018-05-13T01:47:10.780Z,14.10
2018-05-13T01:49:38.313Z,14.00
2018-05-13T01:52:05.852Z,13.80
2018-05-13T01:54:33.375Z,13.80
2018-05-13T01:57:00.918Z,13.70
2018-05-13T01:59:28.448Z,13.70
2018-05-13T02:01:55.983Z,13.60
2018-05-13T02:04:23.507Z,13.60
2018-05-13T02:06:51.040Z,13.60
2018-05-13T02:09:18.563Z,13.70
2018-05-13T02:11:46.112Z,13.80
2018-05-13T02:14:13.641Z,13.70
2018-05-13T02:16:41.199Z,13.70
2018-05-13T02:19:08.735Z,13.70
2018-05-13T02:21:36.278Z,13.70
2018-05-13T02:24:04.571Z,13.60
2018-05-13T02:26:32.110Z,13.50
2018-05-13T02:28:59.656Z,13.40
2018-05-13T02:31:27.177Z,13.30
2018-05-13T02:33:54.715Z,13.20
2018-05-13T02:36:22.235Z,13.30
2018-05-13T02:38:49.787Z,13.20
2018-05-13T02:41:17.328Z,13.20
2018-05-13T02:43:45.640Z,13.10
2018-05-13T02:46:13.172Z,13.10
2018-05-13T02:48:41.496Z,13.20
2018-05-13T02:51:09.024Z,13.10
2018-05-13T02:53:36.557Z,13.10
2018-05-13T02:56:04.850Z,13.00
2018-05-13T02:58:32.396Z,13.00
2018-05-13T03:01:00.688Z,13.00
2018-05-13T03:03:28.231Z,13.00
2018-05-13T03:05:56.528Z,13.20
2018-05-13T03:08:24.068Z,13.20
2018-05-13T03:10:52.362Z,13.20
2018-05-13T03:13:19.899Z,13.10
2018-05-13T03:15:48.193Z,13.00
2018-05-13T03:18:15.755Z,12.90
2018-05-13T03:20:43.272Z,12.90
2018-05-13T03:23:10.811Z,12.90
2018-05-13T03:25:38.340Z,13.00
2018-05-13T03:28:06.020Z,12.90
2018-05-13T03:30:33.565Z,12.90
2018-05-13T03:33:01.120Z,13.00
2018-05-13T03:35:28.652Z,13.00
2018-05-13T03:37:56.186Z,12.90
2018-05-13T03:40:24.504Z,12.90
2018-05-13T03:42:52.034Z,12.90
2018-05-13T03:45:19.583Z,12.90
2018-05-13T03:47:47.877Z,12.90
2018-05-13T03:50:15.420Z,12.90
2018-05-13T03:52:43.710Z,12.90
2018-05-13T03:55:11.254Z,13.00
2018-05-13T03:57:39.549Z,13.00
2018-05-13T04:00:07.097Z,13.00
2018-05-13T04:02:34.628Z,13.00
2018-05-13T04:05:02.166Z,13.00
2018-05-13T04:07:30.508Z,13.10
2018-05-13T04:10:09.876Z,13.20
2018-05-13T04:12:49.033Z,13.20
2018-05-13T04:15:20.301Z,13.30
2018-05-13T04:17:47.825Z,13.30
2018-05-13T04:20:15.383Z,13.40
2018-05-13T04:22:42.912Z,13.50
2018-05-13T04:25:10.448Z,13.50
2018-05-13T04:27:37.967Z,13.60
2018-05-13T04:30:05.504Z,13.60
2018-05-13T04:32:33.019Z,13.70
2018-05-13T04:35:00.564Z,13.70
2018-05-13T04:37:28.089Z,13.90
2018-05-13T04:39:55.624Z,13.90
2018-05-13T04:42:23.166Z,14.10
2018-05-13T04:44:50.727Z,14.30
2018-05-13T04:47:18.253Z,14.40
2018-05-13T04:49:45.787Z,14.60
2018-05-13T04:52:13.330Z,14.70
2018-05-13T04:54:42.379Z,14.80
2018-05-13T04:57:09.917Z,14.90
2018-05-13T04:59:37.446Z,15.00
2018-05-13T05:02:05.005Z,15.00
2018-05-13T05:04:32.524Z,15.20
2018-05-13T05:07:00.072Z,15.20
2018-05-13T05:09:27.596Z,15.30
2018-05-13T05:11:55.490Z,15.40
2018-05-13T05:14:23.020Z,15.60
2018-05-13T05:16:51.328Z,15.70
2018-05-13T05:19:18.848Z,15.70
2018-05-13T05:21:47.149Z,15.90
2018-05-13T05:24:14.667Z,15.90
2018-05-13T05:26:42.304Z,16.00
2018-05-13T05:29:09.836Z,16.10
2018-05-13T05:31:37.375Z,16.10
2018-05-13T05:34:04.954Z,16.20
2018-05-13T05:36:32.506Z,16.30
2018-05-13T05:39:00.033Z,16.40
2018-05-13T05:41:28.349Z,16.60
2018-05-13T05:43:55.882Z,16.60
2018-05-13T05:46:23.425Z,16.70
2018-05-13T05:48:51.223Z,16.90
2018-05-13T05:51:18.777Z,17.00
2018-05-13T05:53:46.303Z,17.10
2018-05-13T05:56:14.608Z,17.40
2018-05-13T05:58:42.149Z,17.40
2018-05-13T06:01:09.683Z,17.50
2018-05-13T06:03:37.224Z,17.60
2018-05-13T06:06:04.753Z,17.70
2018-05-13T06:08:32.292Z,17.90
2018-05-13T06:10:59.822Z,18.00
2018-05-13T06:13:27.366Z,18.10
2018-05-13T06:15:54.884Z,18.20
2018-05-13T06:18:22.425Z,18.30
2018-05-13T06:20:49.949Z,18.40
2018-05-13T06:23:17.495Z,18.40
2018-05-13T06:25:45.020Z,18.50
2018-05-13T06:28:12.551Z,18.70
2018-05-13T06:30:40.078Z,18.80
2018-05-13T06:33:07.628Z,18.90
2018-05-13T06:35:35.151Z,19.00
2018-05-13T06:38:02.701Z,19.10
2018-05-13T06:40:30.237Z,19.20
2018-05-13T06:42:57.783Z,19.30
2018-05-13T06:45:25.324Z,19.40
2018-05-13T06:47:53.632Z,19.70
2018-05-13T06:50:21.152Z,19.70
2018-05-13T06:52:49.467Z,20.00
2018-05-13T06:55:16.991Z,19.90
2018-05-13T06:57:45.306Z,20.40
2018-05-13T07:00:12.844Z,20.40
2018-05-13T07:02:41.171Z,20.80
2018-05-13T07:05:08.698Z,20.70
2018-05-13T07:07:36.256Z,21.00
2018-05-13T07:10:03.826Z,21.30
2018-05-13T07:12:31.378Z,21.70
2018-05-13T07:14:59.033Z,22.70
2018-05-13T07:17:26.596Z,24.30
2018-05-13T07:19:54.146Z,26.10
2018-05-13T07:22:21.681Z,29.10
2018-05-13T07:24:49.225Z,32.00
2018-05-13T07:27:17.561Z,35.70
2018-05-13T07:29:45.167Z,35.60
2018-05-13T07:32:12.668Z,36.50
2018-05-13T07:34:40.229Z,37.00
2018-05-13T07:37:07.775Z,36.70
2018-05-13T07:39:35.416Z,36.70
2018-05-13T07:42:02.971Z,36.30
2018-05-13T07:44:30.522Z,36.90
2018-05-13T07:46:58.073Z,37.10
2018-05-13T07:49:25.630Z,37.00
2018-05-13T07:51:53.924Z,35.60
2018-05-13T07:54:21.487Z,35.60
2018-05-13T07:56:49.011Z,35.70
2018-05-13T07:59:16.631Z,36.40
2018-05-13T08:01:44.920Z,36.40
2018-05-13T08:04:12.451Z,36.30
2018-05-13T08:06:40.015Z,37.00
2018-05-13T08:09:07.762Z,38.00
2018-05-13T08:11:35.298Z,38.10
2018-05-13T08:14:06.956Z,38.60
2018-05-13T08:16:34.488Z,39.00
2018-05-13T08:19:02.061Z,39.30
2018-05-13T08:21:29.660Z,39.50
2018-05-13T08:23:57.204Z,39.70
2018-05-13T08:26:24.736Z,40.20
2018-05-13T08:28:52.292Z,39.40
2018-05-13T08:31:20.717Z,39.00
2018-05-13T08:33:48.239Z,39.00
2018-05-13T08:36:15.779Z,39.40
2018-05-13T08:38:43.291Z,39.10
2018-05-13T08:41:10.831Z,39.30
2018-05-13T08:43:38.389Z,39.10
2018-05-13T08:46:05.932Z,38.80
2018-05-13T08:48:33.491Z,38.60
2018-05-13T08:51:01.812Z,37.80
2018-05-13T08:53:29.327Z,37.80
2018-05-13T08:55:57.641Z,37.60
2018-05-13T08:58:25.163Z,37.70
2018-05-13T09:00:53.281Z,37.90
2018-05-13T09:03:21.172Z,38.20
2018-05-13T09:05:48.728Z,38.10
2018-05-13T09:08:16.249Z,37.80
2018-05-13T09:10:43.783Z,37.10
2018-05-13T09:13:11.311Z,36.20
2018-05-13T09:15:38.855Z,36.60
2018-05-13T09:18:06.384Z,37.20
2018-05-13T09:20:34.009Z,38.10
2018-05-13T09:23:01.488Z,38.10
2018-05-13T09:25:29.029Z,37.60
2018-05-13T09:27:56.562Z,37.50
2018-05-13T09:30:24.132Z,37.40
2018-05-13T09:32:51.654Z,36.80
2018-05-13T09:35:19.196Z,37.30
2018-05-13T09:37:46.727Z,38.30
2018-05-13T09:40:14.271Z,38.20
2018-05-13T09:42:41.808Z,37.40
2018-05-13T09:45:10.112Z,36.80
2018-05-13T09:47:37.644Z,36.80
2018-05-13T09:50:05.939Z,36.90
2018-05-13T09:52:33.479Z,36.90
2018-05-13T09:55:01.775Z,37.70
2018-05-13T09:57:29.311Z,37.70
2018-05-13T09:59:57.599Z,36.30
2018-05-13T10:02:25.164Z,36.30
2018-05-13T10:04:53.449Z,35.40
2018-05-13T10:07:20.987Z,35.30
2018-05-13T10:09:49.315Z,34.30
2018-05-13T10:12:16.850Z,34.30
2018-05-13T10:14:44.368Z,32.90
2018-05-13T10:17:11.914Z,31.80
2018-05-13T10:19:39.439Z,30.90
2018-05-13T10:22:06.988Z,30.50
2018-05-13T10:24:34.511Z,30.20
2018-05-13T10:27:02.861Z,30.10
2018-05-13T10:29:30.384Z,30.10
2018-05-13T10:31:57.923Z,30.10
2018-05-13T10:34:25.444Z,30.00
2018-05-13T10:36:53.757Z,29.70
2018-05-13T10:39:21.283Z,29.70
2018-05-13T10:41:48.863Z,29.80
2018-05-13T10:44:16.394Z,29.80
2018-05-13T10:46:43.927Z,29.70
2018-05-13T10:49:11.468Z,29.70
2018-05-13T10:51:39.020Z,29.70
2018-05-13T10:54:06.559Z,29.60
2018-05-13T10:56:34.141Z,29.50
2018-05-13T10:59:01.695Z,29.40
2018-05-13T11:01:29.248Z,29.40
2018-05-13T11:03:56.785Z,29.40
2018-05-13T11:06:24.299Z,29.50
2018-05-13T11:08:51.873Z,29.60
2018-05-13T11:11:19.427Z,29.60
2018-05-13T11:13:46.974Z,29.60
2018-05-13T11:16:14.512Z,29.80
2018-05-13T11:18:42.068Z,29.80
2018-05-13T11:21:09.597Z,29.80
2018-05-13T11:23:37.138Z,29.80
2018-05-13T11:26:04.665Z,29.50
2018-05-13T11:28:32.200Z,29.40
2018-05-13T11:30:59.722Z,29.40
2018-05-13T11:33:27.258Z,29.40
2018-05-13T11:35:54.772Z,29.60
2018-05-13T11:38:22.317Z,29.50
2018-05-13T11:40:49.852Z,29.40
2018-05-13T11:43:17.397Z,29.50
2018-05-13T11:45:45.681Z,29.70
2018-05-13T11:48:14.000Z,29.90
2018-05-13T11:50:41.541Z,29.80
2018-05-13T11:53:09.089Z,29.90
2018-05-13T11:55:36.607Z,29.80
2018-05-13T11:58:04.336Z,29.70
2018-05-13T12:00:31.870Z,29.60
2018-05-13T12:02:59.404Z,29.50
2018-05-13T12:05:27.689Z,29.40
2018-05-13T12:07:55.243Z,29.40
2018-05-13T12:10:23.525Z,29.70
2018-05-13T12:12:51.043Z,29.70
2018-05-13T12:15:18.592Z,29.70
2018-05-13T12:17:46.125Z,29.90
2018-05-13T12:20:13.663Z,30.00
2018-05-13T12:22:41.189Z,30.10
2018-05-13T12:25:09.501Z,30.10
2018-05-13T12:27:37.025Z,30.00
2018-05-13T12:30:04.596Z,29.70
2018-05-13T12:32:32.116Z,29.60
2018-05-13T12:34:59.651Z,29.60
2018-05-13T12:37:27.168Z,29.50
2018-05-13T12:39:55.473Z,29.30
2018-05-13T12:42:23.438Z,29.30
2018-05-13T12:44:50.985Z,29.20
2018-05-13T12:47:18.510Z,29.00
2018-05-13T12:49:46.047Z,29.10
2018-05-13T12:52:13.561Z,29.10
2018-05-13T12:54:41.091Z,29.10
2018-05-13T12:57:08.617Z,29.00
2018-05-13T12:59:36.159Z,29.10
2018-05-13T13:02:03.704Z,29.00
2018-05-13T13:04:31.239Z,28.90
2018-05-13T13:06:58.773Z,28.80
2018-05-13T13:09:27.130Z,28.60
2018-05-13T13:11:54.633Z,28.60
2018-05-13T13:14:22.170Z,28.70
2018-05-13T13:16:50.580Z,28.60
2018-05-13T13:19:18.135Z,28.50
2018-05-13T13:21:45.651Z,28.60
2018-05-13T13:24:13.176Z,28.60
2018-05-13T13:26:40.715Z,28.60
2018-05-13T13:29:08.240Z,28.70
2018-05-13T13:31:35.784Z,28.70
2018-05-13T13:34:03.309Z,28.70
2018-05-13T13:36:30.853Z,28.70
2018-05-13T13:38:58.369Z,28.80
2018-05-13T13:41:25.903Z,28.70
2018-05-13T13:43:53.420Z,28.60
2018-05-13T13:46:20.984Z,28.50
2018-05-13T13:48:48.518Z,28.60
2018-05-13T13:51:16.160Z,28.60
2018-05-13T13:53:43.709Z,28.60
2018-05-13T13:56:11.255Z,28.60
2018-05-13T13:58:38.795Z,28.50
2018-05-13T14:01:06.323Z,28.40
2018-05-13T14:03:33.843Z,28.40
2018-05-13T14:06:01.393Z,28.40
2018-05-13T14:08:28.922Z,28.40
2018-05-13T14:10:56.455Z,28.30
2018-05-13T14:13:23.983Z,28.20
2018-05-13T14:15:51.532Z,28.20
2018-05-13T14:18:19.825Z,27.90
2018-05-13T14:20:47.355Z,27.90
2018-05-13T14:23:14.863Z,27.90
2018-05-13T14:25:42.402Z,27.80
2018-05-13T14:28:09.998Z,27.90
2018-05-13T14:30:37.493Z,27.90
2018-05-13T14:33:05.038Z,28.00
2018-05-13T14:35:32.558Z,28.00
2018-05-13T14:38:00.230Z,28.00
2018-05-13T14:40:27.686Z,28.10
2018-05-13T14:42:55.365Z,28.20
2018-05-13T14:45:22.927Z,28.00
2018-05-13T14:47:50.543Z,27.90
2018-05-13T14:50:17.984Z,27.80
2018-05-13T14:52:45.524Z,27.70
2018-05-13T14:55:13.057Z,27.70
2018-05-13T14:57:40.589Z,27.70
2018-05-13T15:00:08.103Z,27.70
2018-05-13T15:02:36.407Z,27.60
2018-05-13T15:05:03.982Z,27.60
2018-05-13T15:07:31.699Z,27.50
2018-05-13T15:10:00.004Z,27.50
2018-05-13T15:12:27.554Z,27.50
2018-05-13T15:14:55.074Z,27.40
2018-05-13T15:17:22.625Z,27.40
2018-05-13T15:19:50.212Z,27.40
2018-05-13T15:22:17.751Z,27.40
2018-05-13T15:24:45.303Z,27.40
2018-05-13T15:27:12.873Z,27.20
2018-05-13T15:29:40.420Z,27.20
2018-05-13T15:32:07.952Z,27.20
2018-05-13T15:34:35.471Z,27.10
2018-05-13T15:37:03.780Z,27.10
2018-05-13T15:39:32.177Z,27.00
2018-05-13T15:41:59.884Z,27.10
2018-05-13T15:44:28.170Z,27.00
2018-05-13T15:46:55.707Z,27.00
2018-05-13T15:49:23.987Z,27.00
2018-05-13T15:51:51.512Z,26.90
2018-05-13T15:54:19.058Z,26.90
2018-05-13T15:56:46.575Z,26.80
2018-05-13T15:59:14.129Z,26.80
2018-05-13T16:01:41.663Z,26.70
2018-05-13T16:04:09.211Z,26.70
2018-05-13T16:06:36.765Z,26.60
2018-05-13T16:09:05.071Z,26.50
2018-05-13T16:11:32.589Z,26.50
2018-05-13T16:14:00.132Z,26.40
2018-05-13T16:16:27.649Z,26.40
2018-05-13T16:18:55.382Z,26.30
2018-05-13T16:21:22.835Z,26.30
2018-05-13T16:23:50.386Z,26.20
2018-05-13T16:26:17.895Z,26.10
2018-05-13T16:28:45.426Z,26.00
2018-05-13T16:31:12.961Z,25.90
2018-05-13T16:33:40.495Z,25.90
2018-05-13T16:36:08.020Z,25.80
2018-05-13T16:38:35.601Z,25.80
2018-05-13T16:41:03.124Z,25.80
2018-05-13T16:43:31.438Z,25.70
2018-05-13T16:45:58.956Z,25.70
2018-05-13T16:48:27.267Z,25.50
2018-05-13T16:50:54.797Z,25.50
2018-05-13T16:53:22.341Z,25.40
2018-05-13T16:55:49.864Z,25.30
2018-05-13T16:58:17.404Z,25.30
2018-05-13T17:00:44.926Z,25.10
2018-05-13T17:03:13.228Z,24.90
2018-05-13T17:05:40.768Z,24.90
2018-05-13T17:08:08.350Z,24.90
2018-05-13T17:10:36.629Z,24.70
2018-05-13T17:13:04.149Z,24.70
2018-05-13T17:15:32.443Z,24.70
2018-05-13T17:17:59.968Z,24.70
2018-05-13T17:20:27.503Z,24.60
2018-05-13T17:22:55.803Z,24.60
2018-05-13T17:25:23.355Z,24.60
2018-05-13T17:27:50.880Z,24.50
2018-05-13T17:30:18.428Z,24.30
2018-05-13T17:32:45.952Z,24.20
2018-05-13T17:35:13.492Z,24.10
2018-05-13T17:37:41.085Z,24.10
2018-05-13T17:40:08.568Z,24.00
2018-05-13T17:42:36.093Z,23.90
2018-05-13T17:45:03.649Z,23.90
2018-05-13T17:47:31.168Z,23.90
2018-05-13T17:49:58.902Z,23.80
2018-05-13T17:52:26.408Z,23.80
2018-05-13T17:54:54.723Z,23.70
2018-05-13T17:57:22.349Z,23.70
2018-05-13T17:59:50.103Z,23.60
2018-05-13T18:02:17.707Z,23.50
2018-05-13T18:04:45.200Z,23.30
2018-05-13T18:07:12.742Z,23.30
2018-05-13T18:09:40.336Z,23.10
2018-05-13T18:12:07.894Z,23.00
2018-05-13T18:14:35.483Z,23.00
2018-05-13T18:17:03.020Z,22.90
2018-05-13T18:19:30.555Z,22.80
2018-05-13T18:21:58.091Z,22.70
2018-05-13T18:24:25.669Z,22.60
2018-05-13T18:26:53.193Z,22.50
2018-05-13T18:29:20.710Z,22.40
2018-05-13T18:31:49.027Z,22.30
2018-05-13T18:34:16.548Z,22.30
2018-05-13T18:36:44.852Z,22.00
2018-05-13T18:39:12.477Z,22.00
2018-05-13T18:41:39.947Z,21.80
2018-05-13T18:44:07.519Z,21.60
2018-05-13T18:46:35.071Z,21.40
2018-05-13T18:49:02.716Z,21.20
2018-05-13T18:51:30.276Z,21.00
2018-05-13T18:53:58.564Z,20.70
2018-05-13T18:56:26.303Z,20.70
2018-05-13T18:58:53.834Z,20.60
2018-05-13T19:01:21.384Z,20.50
2018-05-13T19:03:48.903Z,20.20
2018-05-13T19:06:16.704Z,20.10
2018-05-13T19:08:44.255Z,20.00
2018-05-13T19:11:11.821Z,19.90
2018-05-13T19:13:39.344Z,19.70
2018-05-13T19:16:06.876Z,19.60
2018-05-13T19:18:34.403Z,19.50
2018-05-13T19:21:02.065Z,19.50
2018-05-13T19:23:29.587Z,19.40
2018-05-13T19:25:57.132Z,19.20
2018-05-13T19:28:24.652Z,19.10
2018-05-13T19:30:52.314Z,18.90
2018-05-13T19:33:19.814Z,18.90
2018-05-13T19:35:47.347Z,18.80
2018-05-13T19:38:14.894Z,18.80
2018-05-13T19:40:43.889Z,18.70
2018-05-13T19:43:11.439Z,18.60
2018-05-13T19:45:38.969Z,18.50
2018-05-13T19:48:06.537Z,18.40
2018-05-13T19:50:34.068Z,18.30
2018-05-13T19:53:01.612Z,18.30
2018-05-13T19:55:29.906Z,18.10
2018-05-13T19:57:57.436Z,18.10
2018-05-13T20:00:25.005Z,18.10
2018-05-13T20:02:52.796Z,18.00
2018-05-13T20:05:20.099Z,17.90
2018-05-13T20:07:48.417Z,17.80
2018-05-13T20:10:15.948Z,17.80
2018-05-13T20:12:44.516Z,17.70
2018-05-13T20:15:12.045Z,17.60
2018-05-13T20:17:39.899Z,17.60
2018-05-13T20:20:07.448Z,17.50
2018-05-13T20:22:46.779Z,17.50
2018-05-13T20:25:15.038Z,17.30
2018-05-13T20:27:42.809Z,17.30
2018-05-13T20:30:10.351Z,17.20
2018-05-13T20:32:37.896Z,17.10
2018-05-13T20:35:05.462Z,17.00
2018-05-13T20:37:32.995Z,17.00
2018-05-13T20:40:01.291Z,16.80
2018-05-13T20:42:28.857Z,16.80
2018-05-13T20:44:56.485Z,16.80
2018-05-13T20:47:24.043Z,16.70
2018-05-13T20:49:52.346Z,16.60
2018-05-13T20:52:20.109Z,16.60
2018-05-13T20:54:47.641Z,16.60
2018-05-13T20:57:15.949Z,16.40
2018-05-13T20:59:43.499Z,16.40
2018-05-13T21:02:11.781Z,16.40
2018-05-13T21:04:39.515Z,16.30
2018-05-13T21:07:07.040Z,16.30
2018-05-13T21:09:34.580Z,16.20
2018-05-13T21:12:02.972Z,16.20
2018-05-13T21:14:30.513Z,16.10
2018-05-13T21:16:58.028Z,16.10
2018-05-13T21:19:25.690Z,16.00
2018-05-13T21:21:53.880Z,15.90
2018-05-13T21:24:21.417Z,15.90
2018-05-13T21:26:48.972Z,15.80
2018-05-13T21:29:16.552Z,15.70
2018-05-13T21:31:44.067Z,15.80
2018-05-13T21:34:11.601Z,15.80
2018-05-13T21:36:39.196Z,15.80
2018-05-13T21:39:06.727Z,15.80
2018-05-13T21:41:34.253Z,15.70
2018-05-13T21:44:01.786Z,15.70
2018-05-13T21:46:29.322Z,15.60
2018-05-13T21:48:56.930Z,15.60
2018-05-13T21:51:24.452Z,15.50
2018-05-13T21:53:52.751Z,15.50
2018-05-13T21:56:20.265Z,15.40
2018-05-13T21:58:47.838Z,15.40
2018-05-13T22:01:15.404Z,15.40
2018-05-13T22:03:43.720Z,15.30
2018-05-13T22:06:12.051Z,15.20
2018-05-13T22:08:39.567Z,15.20
2018-05-13T22:11:07.100Z,15.10
2018-05-13T22:13:34.621Z,15.00
2018-05-13T22:16:02.151Z,15.10
2018-05-13T22:18:29.663Z,15.10
2018-05-13T22:20:57.260Z,15.20
2018-05-13T22:23:24.747Z,15.10
2018-05-13T22:25:52.275Z,15.00
2018-05-13T22:28:19.788Z,15.00
2018-05-13T22:30:48.089Z,14.90
2018-05-13T22:33:15.599Z,14.90
2018-05-13T22:35:43.136Z,14.90
2018-05-13T22:38:10.662Z,14.80
2018-05-13T22:40:38.199Z,14.70
2018-05-13T22:43:05.718Z,14.70
2018-05-13T22:45:33.272Z,14.60
2018-05-13T22:48:00.794Z,14.70
2018-05-13T22:50:28.340Z,14.60
2018-05-13T22:52:55.867Z,14.60
2018-05-13T22:55:23.398Z,14.50
2018-05-13T22:57:50.916Z,14.50
2018-05-13T23:00:18.474Z,14.50
2018-05-13T23:02:46.009Z,14.40
2018-05-13T23:05:13.559Z,14.40
2018-05-13T23:07:41.860Z,14.30
2018-05-13T23:10:09.401Z,14.30
2018-05-13T23:12:37.702Z,14.40
2018-05-13T23:15:05.236Z,14.30
2018-05-13T23:17:33.538Z,14.40
2018-05-13T23:20:01.068Z,14.40
2018-05-13T23:22:35.208Z,14.50
2018-05-13T23:25:02.740Z,14.40
2018-05-13T23:27:31.042Z,14.50
2018-05-13T23:29:58.574Z,14.40
2018-05-13T23:32:26.876Z,14.30
2018-05-13T23:34:54.400Z,14.30
2018-05-13T23:37:22.717Z,14.10
2018-05-13T23:39:51.003Z,14.10
2018-05-13T23:42:18.555Z,14.10
2018-05-13T23:44:46.081Z,14.10
2018-05-13T23:47:13.612Z,14.00
2018-05-13T23:49:41.133Z,14.00
2018-05-13T23:52:08.664Z,14.00
2018-05-13T23:54:36.180Z,13.90
2018-05-13T23:57:03.707Z,13.80
2018-05-13T23:59:31.229Z,13.80
